sensor_id;sensor_type;location;lat;lon;timestamp;pressure;altitude;pressure_sealevel;temperature;humidity
33191;BME280;19554;42.652;23.364;2023-05-13T00:01:04;95046.94;;;9.70;57.79
33191;BME280;19554;42.652;23.364;2023-05-13T00:03:30;94971.13;;;9.27;58.09
33191;BME280;19554;42.652;23.364;2023-05-13T00:05:56;95030.97;;;9.65;57.99
33191;BME280;19554;42.652;23.364;2023-05-13T00:08:21;95008.63;;;9.51;57.72
33191;BME280;19554;42.652;23.364;2023-05-13T00:10:47;95021.69;;;9.53;56.30
33191;BME280;19554;42.652;23.364;2023-05-13T00:13:12;94998.00;;;9.41;56.68
33191;BME280;19554;42.652;23.364;2023-05-13T00:15:37;95003.88;;;9.38;55.20
33191;BME280;19554;42.652;23.364;2023-05-13T00:18:04;95034.22;;;9.57;56.12
33191;BME280;19554;42.652;23.364;2023-05-13T00:20:29;95032.34;;;9.53;55.81
33191;BME280;19554;42.652;23.364;2023-05-13T00:22:55;95026.47;;;9.56;55.03
33191;BME280;19554;42.652;23.364;2023-05-13T00:25:20;95010.00;;;9.38;55.94
33191;BME280;19554;42.652;23.364;2023-05-13T00:27:46;94994.81;;;9.29;55.72
33191;BME280;19554;42.652;23.364;2023-05-13T00:30:11;95025.41;;;9.46;56.53
33191;BME280;19554;42.652;23.364;2023-05-13T00:32:36;95051.25;;;9.61;56.79
33191;BME280;19554;42.652;23.364;2023-05-13T00:35:02;95016.94;;;9.34;56.77
33191;BME280;19554;42.652;23.364;2023-05-13T00:37:28;95063.50;;;9.62;57.22
33191;BME280;19554;42.652;23.364;2023-05-13T00:39:53;95043.78;;;9.53;57.02
33191;BME280;19554;42.652;23.364;2023-05-13T00:42:18;95003.63;;;9.34;56.96
33191;BME280;19554;42.652;23.364;2023-05-13T00:44:44;95015.03;;;9.40;57.78
33191;BME280;19554;42.652;23.364;2023-05-13T00:47:10;95044.31;;;9.60;57.31
33191;BME280;19554;42.652;23.364;2023-05-13T00:49:36;95010.25;;;9.42;57.57
33191;BME280;19554;42.652;23.364;2023-05-13T00:52:02;95013.22;;;9.30;57.78
33191;BME280;19554;42.652;23.364;2023-05-13T00:54:28;95056.56;;;9.66;57.28
33191;BME280;19554;42.652;23.364;2023-05-13T00:56:54;95066.66;;;9.80;59.18
33191;BME280;19554;42.652;23.364;2023-05-13T00:59:26;95057.28;;;9.92;63.17
33191;BME280;19554;42.652;23.364;2023-05-13T01:05:08;95045.47;;;10.14;65.73
33191;BME280;19554;42.652;23.364;2023-05-13T01:12:42;95040.78;;;9.85;58.38
33191;BME280;19554;42.652;23.364;2023-05-13T01:15:12;95031.75;;;9.76;57.19
33191;BME280;19554;42.652;23.364;2023-05-13T01:18:14;95042.13;;;9.83;57.82
33191;BME280;19554;42.652;23.364;2023-05-13T01:20:43;95032.00;;;9.80;57.46
33191;BME280;19554;42.652;23.364;2023-05-13T01:23:11;95057.00;;;9.94;58.05
33191;BME280;19554;42.652;23.364;2023-05-13T01:25:40;95066.66;;;9.85;56.13
33191;BME280;19554;42.652;23.364;2023-05-13T01:28:07;95068.78;;;9.83;55.85
33191;BME280;19554;42.652;23.364;2023-05-13T01:30:33;95070.41;;;9.79;55.81
33191;BME280;19554;42.652;23.364;2023-05-13T01:33:00;95076.78;;;9.83;54.65
33191;BME280;19554;42.652;23.364;2023-05-13T01:35:25;95075.75;;;9.63;53.52
33191;BME280;19554;42.652;23.364;2023-05-13T01:37:52;95074.69;;;9.59;54.46
33191;BME280;19554;42.652;23.364;2023-05-13T01:40:19;95064.06;;;9.54;54.20
33191;BME280;19554;42.652;23.364;2023-05-13T01:42:44;95055.84;;;9.30;54.54
33191;BME280;19554;42.652;23.364;2023-05-13T01:45:10;95062.47;;;9.43;54.50
33191;BME280;19554;42.652;23.364;2023-05-13T01:47:35;95066.72;;;9.49;55.33
33191;BME280;19554;42.652;23.364;2023-05-13T01:50:01;95063.53;;;9.47;54.83
33191;BME280;19554;42.652;23.364;2023-05-13T01:52:26;95054.47;;;9.33;55.63
33191;BME280;19554;42.652;23.364;2023-05-13T01:54:51;95063.00;;;9.30;56.34
33191;BME280;19554;42.652;23.364;2023-05-13T01:57:17;95016.69;;;9.15;56.82
33191;BME280;19554;42.652;23.364;2023-05-13T01:59:42;95036.38;;;9.35;57.92
33191;BME280;19554;42.652;23.364;2023-05-13T02:02:08;95052.34;;;9.45;59.77
33191;BME280;19554;42.652;23.364;2023-05-13T02:04:33;95061.41;;;9.54;62.38
33191;BME280;19554;42.652;23.364;2023-05-13T02:06:58;95018.81;;;9.34;64.10
33191;BME280;19554;42.652;23.364;2023-05-13T02:09:24;95043.25;;;9.56;65.35
33191;BME280;19554;42.652;23.364;2023-05-13T02:11:49;95022.50;;;9.48;65.68
33191;BME280;19554;42.652;23.364;2023-05-13T02:14:15;95021.97;;;9.51;65.74
33191;BME280;19554;42.652;23.364;2023-05-13T02:16:40;95068.25;;;9.86;64.82
33191;BME280;19554;42.652;23.364;2023-05-13T02:19:06;95069.31;;;9.80;62.90
33191;BME280;19554;42.652;23.364;2023-05-13T02:21:31;95069.03;;;9.86;62.49
33191;BME280;19554;42.652;23.364;2023-05-13T02:23:57;95064.47;;;9.97;61.20
33191;BME280;19554;42.652;23.364;2023-05-13T02:26:22;95070.34;;;9.94;59.19
33191;BME280;19554;42.652;23.364;2023-05-13T02:28:48;95063.38;;;9.98;59.54
33191;BME280;19554;42.652;23.364;2023-05-13T02:31:13;95063.94;;;10.00;57.98
33191;BME280;19554;42.652;23.364;2023-05-13T02:33:38;95074.63;;;9.95;57.15
33191;BME280;19554;42.652;23.364;2023-05-13T02:36:04;95064.00;;;9.85;57.27
33191;BME280;19554;42.652;23.364;2023-05-13T02:38:29;95071.41;;;9.88;56.38
33191;BME280;19554;42.652;23.364;2023-05-13T02:40:55;95074.66;;;9.80;55.91
33191;BME280;19554;42.652;23.364;2023-05-13T02:43:20;95053.91;;;9.56;56.04
33191;BME280;19554;42.652;23.364;2023-05-13T02:45:47;95074.41;;;9.66;56.61
33191;BME280;19554;42.652;23.364;2023-05-13T02:48:13;95065.66;;;9.45;57.04
33191;BME280;19554;42.652;23.364;2023-05-13T02:50:38;95073.66;;;9.45;58.07
33191;BME280;19554;42.652;23.364;2023-05-13T02:53:05;95068.59;;;9.48;58.66
33191;BME280;19554;42.652;23.364;2023-05-13T02:55:30;95063.00;;;9.35;59.39
33191;BME280;19554;42.652;23.364;2023-05-13T02:57:56;95070.19;;;9.39;60.15
33191;BME280;19554;42.652;23.364;2023-05-13T03:00:21;95062.47;;;9.38;60.94
33191;BME280;19554;42.652;23.364;2023-05-13T03:02:46;95060.88;;;9.47;61.24
33191;BME280;19554;42.652;23.364;2023-05-13T03:05:12;95060.31;;;9.50;61.70
33191;BME280;19554;42.652;23.364;2023-05-13T03:07:37;95067.25;;;9.61;61.66
33191;BME280;19554;42.652;23.364;2023-05-13T03:10:03;95094.38;;;9.89;60.96
33191;BME280;19554;42.652;23.364;2023-05-13T03:12:29;95103.16;;;9.84;60.06
33191;BME280;19554;42.652;23.364;2023-05-13T03:14:54;95098.09;;;9.88;60.14
33191;BME280;19554;42.652;23.364;2023-05-13T03:17:20;95103.97;;;9.85;60.70
33191;BME280;19554;42.652;23.364;2023-05-13T03:19:45;95097.53;;;9.96;60.99
33191;BME280;19554;42.652;23.364;2023-05-13T03:22:10;95021.41;;;9.59;60.55
33191;BME280;19554;42.652;23.364;2023-05-13T03:24:36;95100.13;;;10.21;60.95
33191;BME280;19554;42.652;23.364;2023-05-13T03:27:01;95076.09;;;10.21;60.85
33191;BME280;19554;42.652;23.364;2023-05-13T03:29:27;95101.69;;;10.38;61.10
33191;BME280;19554;42.652;23.364;2023-05-13T03:31:53;95028.72;;;9.98;61.47
33191;BME280;19554;42.652;23.364;2023-05-13T03:34:18;95101.63;;;10.48;61.66
33191;BME280;19554;42.652;23.364;2023-05-13T03:36:44;95002.38;;;9.91;61.47
33191;BME280;19554;42.652;23.364;2023-05-13T03:39:09;95113.06;;;10.59;61.61
33191;BME280;19554;42.652;23.364;2023-05-13T03:41:34;95114.34;;;10.66;61.96
33191;BME280;19554;42.652;23.364;2023-05-13T03:44:00;95071.28;;;10.34;62.19
33191;BME280;19554;42.652;23.364;2023-05-13T03:46:25;95110.88;;;10.71;62.11
33191;BME280;19554;42.652;23.364;2023-05-13T03:48:54;95123.38;;;10.81;62.37
33191;BME280;19554;42.652;23.364;2023-05-13T03:51:22;95124.13;;;10.86;62.27
33191;BME280;19554;42.652;23.364;2023-05-13T03:53:47;95032.91;;;10.30;62.32
33191;BME280;19554;42.652;23.364;2023-05-13T03:56:13;95087.66;;;10.66;62.17
33191;BME280;19554;42.652;23.364;2023-05-13T03:58:39;95067.44;;;10.60;61.85
33191;BME280;19554;42.652;23.364;2023-05-13T04:01:08;95138.19;;;11.02;61.87
33191;BME280;19554;42.652;23.364;2023-05-13T04:03:33;95143.00;;;11.05;61.89
33191;BME280;19554;42.652;23.364;2023-05-13T04:05:59;95131.03;;;10.98;61.84
33191;BME280;19554;42.652;23.364;2023-05-13T04:08:25;95138.97;;;11.08;62.12
33191;BME280;19554;42.652;23.364;2023-05-13T04:10:51;95147.22;;;11.11;62.04
33191;BME280;19554;42.652;23.364;2023-05-13T04:13:16;95128.06;;;10.99;62.31
33191;BME280;19554;42.652;23.364;2023-05-13T04:15:42;95154.13;;;11.18;62.29
33191;BME280;19554;42.652;23.364;2023-05-13T04:18:07;95155.72;;;11.19;62.72
33191;BME280;19554;42.652;23.364;2023-05-13T04:20:33;95151.97;;;11.25;62.06
33191;BME280;19554;42.652;23.364;2023-05-13T04:22:58;95146.31;;;11.26;61.73
33191;BME280;19554;42.652;23.364;2023-05-13T04:25:23;95151.91;;;11.30;61.39
33191;BME280;19554;42.652;23.364;2023-05-13T04:27:49;95148.69;;;11.28;61.41
33191;BME280;19554;42.652;23.364;2023-05-13T04:30:14;95154.03;;;11.33;61.53
33191;BME280;19554;42.652;23.364;2023-05-13T04:32:40;95160.47;;;11.27;61.96
33191;BME280;19554;42.652;23.364;2023-05-13T04:35:06;95124.31;;;11.00;62.48
33191;BME280;19554;42.652;23.364;2023-05-13T04:37:32;95151.13;;;10.85;62.35
33191;BME280;19554;42.652;23.364;2023-05-13T04:39:57;95155.13;;;10.82;59.42
33191;BME280;19554;42.652;23.364;2023-05-13T04:42:23;95176.19;;;10.89;58.33
33191;BME280;19554;42.652;23.364;2023-05-13T04:44:48;95177.03;;;10.79;58.51
33191;BME280;19554;42.652;23.364;2023-05-13T04:47:14;95154.44;;;10.56;58.66
33191;BME280;19554;42.652;23.364;2023-05-13T04:49:39;95172.00;;;10.73;58.81
33191;BME280;19554;42.652;23.364;2023-05-13T04:52:05;95164.28;;;10.71;59.10
33191;BME280;19554;42.652;23.364;2023-05-13T04:54:30;95158.88;;;10.81;58.55
33191;BME280;19554;42.652;23.364;2023-05-13T04:56:56;95159.63;;;10.92;57.84
33191;BME280;19554;42.652;23.364;2023-05-13T04:59:21;95168.00;;;11.20;58.49
33191;BME280;19554;42.652;23.364;2023-05-13T05:01:47;95165.19;;;11.40;58.54
33191;BME280;19554;42.652;23.364;2023-05-13T05:04:13;95150.03;;;11.65;58.23
33191;BME280;19554;42.652;23.364;2023-05-13T05:06:38;95153.53;;;11.94;58.22
33191;BME280;19554;42.652;23.364;2023-05-13T05:09:05;95155.84;;;12.30;58.49
33191;BME280;19554;42.652;23.364;2023-05-13T05:11:30;95151.53;;;12.58;58.36
33191;BME280;19554;42.652;23.364;2023-05-13T05:13:56;95155.31;;;12.95;57.91
33191;BME280;19554;42.652;23.364;2023-05-13T05:16:21;95164.06;;;13.24;57.37
33191;BME280;19554;42.652;23.364;2023-05-13T05:18:47;95161.03;;;13.31;56.56
33191;BME280;19554;42.652;23.364;2023-05-13T05:21:12;95163.75;;;13.07;56.86
33191;BME280;19554;42.652;23.364;2023-05-13T05:23:38;95159.56;;;13.20;57.24
33191;BME280;19554;42.652;23.364;2023-05-13T05:26:03;95122.97;;;13.29;55.85
33191;BME280;19554;42.652;23.364;2023-05-13T05:28:29;95157.28;;;13.65;55.00
33191;BME280;19554;42.652;23.364;2023-05-13T05:30:54;95134.66;;;13.71;52.77
33191;BME280;19554;42.652;23.364;2023-05-13T05:33:20;95159.06;;;13.88;52.34
33191;BME280;19554;42.652;23.364;2023-05-13T05:35:46;95140.19;;;13.61;53.13
33191;BME280;19554;42.652;23.364;2023-05-13T05:38:11;95138.69;;;13.17;54.29
33191;BME280;19554;42.652;23.364;2023-05-13T05:40:39;95165.72;;;13.39;54.45
33191;BME280;19554;42.652;23.364;2023-05-13T05:43:05;95146.03;;;13.30;53.96
33191;BME280;19554;42.652;23.364;2023-05-13T05:45:31;95167.69;;;13.34;54.24
33191;BME280;19554;42.652;23.364;2023-05-13T05:47:56;95167.81;;;13.23;54.80
33191;BME280;19554;42.652;23.364;2023-05-13T05:50:22;95130.38;;;12.99;54.98
33191;BME280;19554;42.652;23.364;2023-05-13T05:52:47;95163.81;;;13.21;55.20
33191;BME280;19554;42.652;23.364;2023-05-13T05:55:13;95162.47;;;13.42;53.43
33191;BME280;19554;42.652;23.364;2023-05-13T05:57:38;95166.03;;;13.38;53.79
33191;BME280;19554;42.652;23.364;2023-05-13T06:00:04;95158.34;;;13.31;54.02
33191;BME280;19554;42.652;23.364;2023-05-13T06:02:30;95168.56;;;13.29;54.14
33191;BME280;19554;42.652;23.364;2023-05-13T06:04:55;95168.97;;;13.36;54.36
33191;BME280;19554;42.652;23.364;2023-05-13T06:07:21;95166.81;;;13.38;55.16
33191;BME280;19554;42.652;23.364;2023-05-13T06:09:46;95169.97;;;13.59;54.68
33191;BME280;19554;42.652;23.364;2023-05-13T06:12:11;95156.19;;;13.66;53.49
33191;BME280;19554;42.652;23.364;2023-05-13T06:14:37;95134.44;;;13.67;53.55
33191;BME280;19554;42.652;23.364;2023-05-13T06:17:02;95169.50;;;14.04;54.16
33191;BME280;19554;42.652;23.364;2023-05-13T06:19:27;95173.47;;;13.92;52.46
33191;BME280;19554;42.652;23.364;2023-05-13T06:21:53;95181.53;;;13.92;53.04
33191;BME280;19554;42.652;23.364;2023-05-13T06:24:18;95173.63;;;13.82;53.46
33191;BME280;19554;42.652;23.364;2023-05-13T06:26:44;95169.19;;;13.59;53.38
33191;BME280;19554;42.652;23.364;2023-05-13T06:29:09;95172.88;;;13.63;53.59
33191;BME280;19554;42.652;23.364;2023-05-13T06:31:35;95177.91;;;13.83;53.19
33191;BME280;19554;42.652;23.364;2023-05-13T06:34:00;95171.16;;;13.86;52.71
33191;BME280;19554;42.652;23.364;2023-05-13T06:36:26;95182.22;;;13.98;52.32
33191;BME280;19554;42.652;23.364;2023-05-13T06:38:52;95169.09;;;13.96;51.93
33191;BME280;19554;42.652;23.364;2023-05-13T06:41:17;95174.13;;;14.17;51.77
33191;BME280;19554;42.652;23.364;2023-05-13T06:43:43;95094.88;;;13.59;52.45
33191;BME280;19554;42.652;23.364;2023-05-13T06:46:10;95182.41;;;14.02;52.80
33191;BME280;19554;42.652;23.364;2023-05-13T06:48:36;95178.66;;;14.03;52.77
33191;BME280;19554;42.652;23.364;2023-05-13T06:51:01;95174.91;;;14.17;52.09
33191;BME280;19554;42.652;23.364;2023-05-13T06:53:26;95177.53;;;14.36;51.45
33191;BME280;19554;42.652;23.364;2023-05-13T06:55:52;95093.56;;;13.89;51.92
33191;BME280;19554;42.652;23.364;2023-05-13T06:58:17;95183.72;;;14.78;47.80
33191;BME280;19554;42.652;23.364;2023-05-13T07:00:43;95168.34;;;15.20;45.17
33191;BME280;19554;42.652;23.364;2023-05-13T07:03:10;95174.31;;;15.53;43.39
33191;BME280;19554;42.652;23.364;2023-05-13T07:05:36;95174.38;;;15.62;42.12
33191;BME280;19554;42.652;23.364;2023-05-13T07:08:02;95193.34;;;15.57;42.61
33191;BME280;19554;42.652;23.364;2023-05-13T07:10:34;95193.44;;;15.52;42.37
33191;BME280;19554;42.652;23.364;2023-05-13T07:13:00;95139.44;;;14.76;42.13
33191;BME280;19554;42.652;23.364;2023-05-13T07:15:26;95195.66;;;14.86;43.10
33191;BME280;19554;42.652;23.364;2023-05-13T07:17:51;95202.81;;;14.77;44.02
33191;BME280;19554;42.652;23.364;2023-05-13T07:20:17;95207.16;;;14.31;43.80
33191;BME280;19554;42.652;23.364;2023-05-13T07:22:47;95210.84;;;13.89;46.54
33191;BME280;19554;42.652;23.364;2023-05-13T07:25:12;95206.25;;;13.89;47.89
33191;BME280;19554;42.652;23.364;2023-05-13T07:27:38;95179.06;;;13.77;48.57
33191;BME280;19554;42.652;23.364;2023-05-13T07:30:04;95217.00;;;13.89;47.19
33191;BME280;19554;42.652;23.364;2023-05-13T07:32:29;95198.00;;;13.67;46.80
33191;BME280;19554;42.652;23.364;2023-05-13T07:34:55;95212.66;;;14.07;46.66
33191;BME280;19554;42.652;23.364;2023-05-13T07:37:20;95220.75;;;14.54;45.82
33191;BME280;19554;42.652;23.364;2023-05-13T07:39:45;95197.44;;;14.90;43.84
33191;BME280;19554;42.652;23.364;2023-05-13T07:42:11;95201.50;;;15.52;42.97
33191;BME280;19554;42.652;23.364;2023-05-13T07:44:36;95202.44;;;15.83;41.58
33191;BME280;19554;42.652;23.364;2023-05-13T07:47:01;95208.19;;;15.91;41.92
33191;BME280;19554;42.652;23.364;2023-05-13T07:49:27;95191.19;;;16.04;41.10
33191;BME280;19554;42.652;23.364;2023-05-13T07:51:52;95214.03;;;16.15;40.46
33191;BME280;19554;42.652;23.364;2023-05-13T07:54:18;95202.91;;;16.08;41.65
33191;BME280;19554;42.652;23.364;2023-05-13T07:56:43;95214.84;;;16.16;42.02
33191;BME280;19554;42.652;23.364;2023-05-13T07:59:10;95201.53;;;16.42;42.15
33191;BME280;19554;42.652;23.364;2023-05-13T08:01:36;95196.41;;;16.71;42.02
33191;BME280;19554;42.652;23.364;2023-05-13T08:04:01;95212.03;;;16.92;41.97
33191;BME280;19554;42.652;23.364;2023-05-13T08:06:26;95207.06;;;17.25;40.51
33191;BME280;19554;42.652;23.364;2023-05-13T08:08:52;95180.72;;;17.39;40.42
33191;BME280;19554;42.652;23.364;2023-05-13T08:11:17;95174.75;;;16.85;40.40
33191;BME280;19554;42.652;23.364;2023-05-13T08:13:43;95203.63;;;16.85;40.87
33191;BME280;19554;42.652;23.364;2023-05-13T08:16:08;95199.47;;;16.78;41.02
33191;BME280;19554;42.652;23.364;2023-05-13T08:18:33;95190.34;;;16.97;41.83
33191;BME280;19554;42.652;23.364;2023-05-13T08:20:59;95182.38;;;16.92;41.11
33191;BME280;19554;42.652;23.364;2023-05-13T08:23:24;95154.56;;;16.34;41.68
33191;BME280;19554;42.652;23.364;2023-05-13T08:25:50;95192.38;;;16.83;41.54
33191;BME280;19554;42.652;23.364;2023-05-13T08:28:16;95175.28;;;16.96;41.68
33191;BME280;19554;42.652;23.364;2023-05-13T08:30:41;95189.44;;;17.36;40.73
33191;BME280;19554;42.652;23.364;2023-05-13T08:33:09;95185.34;;;17.56;40.54
33191;BME280;19554;42.652;23.364;2023-05-13T08:35:35;95184.06;;;17.27;41.23
33191;BME280;19554;42.652;23.364;2023-05-13T08:38:00;95178.97;;;17.17;41.27
33191;BME280;19554;42.652;23.364;2023-05-13T08:40:27;95151.06;;;16.73;41.42
33191;BME280;19554;42.652;23.364;2023-05-13T08:42:54;95176.69;;;16.22;43.17
33191;BME280;19554;42.652;23.364;2023-05-13T08:45:24;95179.66;;;16.43;42.89
33191;BME280;19554;42.652;23.364;2023-05-13T08:47:57;95157.66;;;16.50;42.82
33191;BME280;19554;42.652;23.364;2023-05-13T08:50:24;95180.47;;;16.84;43.53
33191;BME280;19554;42.652;23.364;2023-05-13T08:52:51;95179.59;;;17.14;42.39
33191;BME280;19554;42.652;23.364;2023-05-13T08:55:18;95175.34;;;17.31;42.38
33191;BME280;19554;42.652;23.364;2023-05-13T08:57:43;95174.53;;;17.39;41.12
33191;BME280;19554;42.652;23.364;2023-05-13T09:00:09;95164.22;;;17.49;41.26
33191;BME280;19554;42.652;23.364;2023-05-13T09:02:35;95164.38;;;17.70;41.58
33191;BME280;19554;42.652;23.364;2023-05-13T09:05:04;95150.13;;;17.79;41.31
33191;BME280;19554;42.652;23.364;2023-05-13T09:07:30;95149.16;;;17.74;41.57
33191;BME280;19554;42.652;23.364;2023-05-13T09:09:56;95076.44;;;17.35;41.77
33191;BME280;19554;42.652;23.364;2023-05-13T09:12:40;95150.09;;;17.61;41.43
33191;BME280;19554;42.652;23.364;2023-05-13T09:15:08;95093.75;;;17.34;41.76
33191;BME280;19554;42.652;23.364;2023-05-13T09:17:37;95134.53;;;17.58;41.76
33191;BME280;19554;42.652;23.364;2023-05-13T09:20:07;95101.19;;;17.19;42.21
33191;BME280;19554;42.652;23.364;2023-05-13T09:22:33;95139.63;;;17.68;42.13
33191;BME280;19554;42.652;23.364;2023-05-13T09:24:59;95140.91;;;17.88;41.98
33191;BME280;19554;42.652;23.364;2023-05-13T09:27:48;95141.50;;;17.94;42.23
33191;BME280;19554;42.652;23.364;2023-05-13T09:30:13;95127.22;;;17.67;42.40
33191;BME280;19554;42.652;23.364;2023-05-13T09:32:39;95147.56;;;17.47;43.81
33191;BME280;19554;42.652;23.364;2023-05-13T09:35:13;95144.38;;;17.71;43.34
33191;BME280;19554;42.652;23.364;2023-05-13T09:37:45;95135.16;;;17.90;43.18
33191;BME280;19554;42.652;23.364;2023-05-13T09:40:12;95135.13;;;18.07;43.42
33191;BME280;19554;42.652;23.364;2023-05-13T09:42:42;95125.53;;;18.18;42.85
33191;BME280;19554;42.652;23.364;2023-05-13T09:45:08;95128.72;;;18.20;42.88
33191;BME280;19554;42.652;23.364;2023-05-13T09:47:37;95124.50;;;18.02;42.86
33191;BME280;19554;42.652;23.364;2023-05-13T09:50:03;95095.94;;;17.84;43.08
33191;BME280;19554;42.652;23.364;2023-05-13T09:52:33;95128.00;;;17.94;43.43
33191;BME280;19554;42.652;23.364;2023-05-13T09:54:59;95128.38;;;17.40;44.13
33191;BME280;19554;42.652;23.364;2023-05-13T09:57:27;95098.66;;;17.32;44.59
33191;BME280;19554;42.652;23.364;2023-05-13T10:00:00;95118.50;;;17.44;44.87
33191;BME280;19554;42.652;23.364;2023-05-13T10:02:27;95117.53;;;17.23;45.20
33191;BME280;19554;42.652;23.364;2023-05-13T10:04:53;95122.47;;;17.12;45.43
33191;BME280;19554;42.652;23.364;2023-05-13T10:07:20;95081.03;;;16.91;45.04
33191;BME280;19554;42.652;23.364;2023-05-13T10:09:53;95125.34;;;17.24;44.89
33191;BME280;19554;42.652;23.364;2023-05-13T10:12:23;95103.91;;;17.28;44.88
33191;BME280;19554;42.652;23.364;2023-05-13T10:14:50;95081.22;;;17.38;44.69
33191;BME280;19554;42.652;23.364;2023-05-13T10:17:23;95117.06;;;17.82;44.71
33191;BME280;19554;42.652;23.364;2023-05-13T10:19:50;95095.94;;;17.66;44.50
33191;BME280;19554;42.652;23.364;2023-05-13T10:22:27;95125.66;;;17.49;45.41
33191;BME280;19554;42.652;23.364;2023-05-13T10:25:01;95121.03;;;17.49;45.23
33191;BME280;19554;42.652;23.364;2023-05-13T10:27:30;95109.75;;;17.56;45.24
33191;BME280;19554;42.652;23.364;2023-05-13T10:29:58;95094.50;;;17.60;45.08
33191;BME280;19554;42.652;23.364;2023-05-13T10:32:25;95088.00;;;17.52;45.35
33191;BME280;19554;42.652;23.364;2023-05-13T10:38:00;95105.00;;;17.53;46.13
33191;BME280;19554;42.652;23.364;2023-05-13T10:43:19;95099.47;;;17.41;46.00
33191;BME280;19554;42.652;23.364;2023-05-13T10:45:55;95091.69;;;17.22;46.14
33191;BME280;19554;42.652;23.364;2023-05-13T10:48:22;95120.56;;;17.39;46.39
33191;BME280;19554;42.652;23.364;2023-05-13T10:50:55;95125.34;;;17.42;46.54
33191;BME280;19554;42.652;23.364;2023-05-13T10:53:23;95122.31;;;17.43;46.38
33191;BME280;19554;42.652;23.364;2023-05-13T10:55:55;95119.63;;;17.52;45.98
33191;BME280;19554;42.652;23.364;2023-05-13T10:58:21;95116.75;;;17.40;46.62
33191;BME280;19554;42.652;23.364;2023-05-13T11:00:52;95128.84;;;17.34;46.57
33191;BME280;19554;42.652;23.364;2023-05-13T11:05:44;95131.69;;;17.28;47.20
33191;BME280;19554;42.652;23.364;2023-05-13T11:08:31;95090.25;;;17.07;47.21
33191;BME280;19554;42.652;23.364;2023-05-13T11:10:57;95101.53;;;17.26;47.15
33191;BME280;19554;42.652;23.364;2023-05-13T11:13:22;95089.47;;;17.33;47.07
33191;BME280;19554;42.652;23.364;2023-05-13T11:15:52;95115.47;;;17.63;46.85
33191;BME280;19554;42.652;23.364;2023-05-13T11:18:19;95111.53;;;17.61;46.43
33191;BME280;19554;42.652;23.364;2023-05-13T11:20:53;95120.09;;;17.54;46.81
33191;BME280;19554;42.652;23.364;2023-05-13T11:23:20;95112.47;;;17.56;46.41
33191;BME280;19554;42.652;23.364;2023-05-13T11:25:46;95091.69;;;17.48;46.69
33191;BME280;19554;42.652;23.364;2023-05-13T11:29:03;95105.78;;;17.71;46.35
33191;BME280;19554;42.652;23.364;2023-05-13T11:31:41;95105.59;;;17.93;46.34
33191;BME280;19554;42.652;23.364;2023-05-13T11:34:15;95090.31;;;18.06;45.76
33191;BME280;19554;42.652;23.364;2023-05-13T11:36:56;95092.84;;;18.11;45.54
33191;BME280;19554;42.652;23.364;2023-05-13T11:39:22;95083.63;;;18.12;45.35
33191;BME280;19554;42.652;23.364;2023-05-13T11:41:52;95084.78;;;18.03;44.52
33191;BME280;19554;42.652;23.364;2023-05-13T11:44:20;95086.63;;;18.11;44.57
33191;BME280;19554;42.652;23.364;2023-05-13T11:47:02;95077.72;;;18.19;44.42
33191;BME280;19554;42.652;23.364;2023-05-13T11:49:41;95079.44;;;18.23;44.48
33191;BME280;19554;42.652;23.364;2023-05-13T11:52:14;95081.31;;;18.32;44.84
33191;BME280;19554;42.652;23.364;2023-05-13T11:54:49;95042.28;;;18.20;43.72
33191;BME280;19554;42.652;23.364;2023-05-13T11:57:29;95071.06;;;18.46;44.50
33191;BME280;19554;42.652;23.364;2023-05-13T12:02:28;95052.22;;;18.29;43.60
33191;BME280;19554;42.652;23.364;2023-05-13T12:04:55;95068.94;;;18.31;43.63
33191;BME280;19554;42.652;23.364;2023-05-13T12:07:24;95067.91;;;18.44;43.17
33191;BME280;19554;42.652;23.364;2023-05-13T12:09:51;95060.72;;;18.48;43.07
33191;BME280;19554;42.652;23.364;2023-05-13T12:12:17;95061.94;;;18.59;42.98
33191;BME280;19554;42.652;23.364;2023-05-13T12:14:44;95045.84;;;18.72;42.53
33191;BME280;19554;42.652;23.364;2023-05-13T12:17:12;95055.63;;;18.85;42.57
33191;BME280;19554;42.652;23.364;2023-05-13T12:19:38;95060.22;;;18.84;42.32
33191;BME280;19554;42.652;23.364;2023-05-13T12:22:04;95039.84;;;18.57;42.73
33191;BME280;19554;42.652;23.364;2023-05-13T12:24:32;95062.66;;;18.77;42.81
33191;BME280;19554;42.652;23.364;2023-05-13T12:27:06;95054.34;;;18.82;42.59
33191;BME280;19554;42.652;23.364;2023-05-13T12:29:41;95047.69;;;18.80;43.31
33191;BME280;19554;42.652;23.364;2023-05-13T12:32:07;95062.06;;;18.72;42.79
33191;BME280;19554;42.652;23.364;2023-05-13T12:34:34;95057.13;;;18.65;42.89
33191;BME280;19554;42.652;23.364;2023-05-13T12:37:12;95029.69;;;18.54;42.83
33191;BME280;19554;42.652;23.364;2023-05-13T12:39:41;95050.28;;;18.67;42.49
33191;BME280;19554;42.652;23.364;2023-05-13T12:42:17;95052.53;;;18.65;42.29
33191;BME280;19554;42.652;23.364;2023-05-13T12:44:43;95042.81;;;18.64;42.63
33191;BME280;19554;42.652;23.364;2023-05-13T12:47:09;95037.09;;;18.66;42.65
33191;BME280;19554;42.652;23.364;2023-05-13T12:49:56;95043.75;;;18.68;43.02
33191;BME280;19554;42.652;23.364;2023-05-13T12:52:24;94946.53;;;18.00;42.51
33191;BME280;19554;42.652;23.364;2023-05-13T12:54:50;95035.53;;;18.56;42.90
33191;BME280;19554;42.652;23.364;2023-05-13T12:57:16;95039.25;;;18.52;42.33
33191;BME280;19554;42.652;23.364;2023-05-13T12:59:42;95036.03;;;18.58;42.19
33191;BME280;19554;42.652;23.364;2023-05-13T13:02:09;95036.28;;;18.65;41.74
33191;BME280;19554;42.652;23.364;2023-05-13T13:04:35;95033.78;;;18.60;41.91
33191;BME280;19554;42.652;23.364;2023-05-13T13:07:00;95028.38;;;18.60;41.65
33191;BME280;19554;42.652;23.364;2023-05-13T13:09:25;95029.97;;;18.61;41.72
33191;BME280;19554;42.652;23.364;2023-05-13T13:11:51;95018.03;;;18.62;42.06